This is the latest recevied weather packets stored in our database for station/object W8CWV-13. If no packets are shown the sender has not sent any weather packets the latest 10 day(s).
| Time | Temp. | Humidity | Pressure | Rain* | Wind** | Luminosity | Snow |
|---|---|---|---|---|---|---|---|
| 1778025879 | 23.89° C | 100% | 1015.9 hPa | - | - | - | - |
| 1778025301 | 23.89° C | 100% | 1015.9 hPa | - | - | - | - |
| 1778024731 | 24.44° C | 100% | 1015.7 hPa | - | - | - | - |
| 1778024159 | 24.44° C | 100% | 1015.6 hPa | - | - | - | - |
| 1778023584 | 25° C | 100% | 1015.6 hPa | - | - | - | - |
| 1778023012 | 25.56° C | 100% | 1015.6 hPa | - | - | - | - |
| 1778022440 | 26.11° C | 100% | 1015.4 hPa | - | - | - | - |
| 1778021870 | 26.11° C | 100% | 1015.5 hPa | - | - | - | - |
| 1778021296 | 26.11° C | 100% | 1015.5 hPa | - | - | - | - |
| 1778020723 | 26.67° C | 100% | 1015.5 hPa | - | - | - | - |
| 1778020149 | 27.22° C | 100% | 1015.5 hPa | - | - | - | - |
| 1778019572 | 27.78° C | 100% | 1015.4 hPa | - | - | - | - |
| 1778019000 | 27.78° C | 100% | 1015.3 hPa | - | - | - | - |
| 1778018427 | 27.78° C | 100% | 1015.3 hPa | - | - | - | - |
| 1778017848 | 28.33° C | 100% | 1015.3 hPa | - | - | - | - |
| 1778017278 | 28.33° C | 100% | 1015.2 hPa | - | - | - | - |
| 1778016702 | 28.89° C | 100% | 1015.2 hPa | - | - | - | - |
| 1778016129 | 28.89° C | 100% | 1015.2 hPa | - | - | - | - |
| 1778015554 | 28.89° C | 100% | 1015.2 hPa | - | - | - | - |
| 1778014983 | 28.89° C | 100% | 1015.3 hPa | - | - | - | - |
| 1778014405 | 28.89° C | 100% | 1015.3 hPa | - | - | - | - |
| 1778013836 | 30.56° C | 100% | 1015 hPa | - | - | - | - |
| 1778013257 | 31.11° C | 100% | 1014.9 hPa | - | - | - | - |
| 1778012691 | 32.22° C | 100% | 1014.8 hPa | - | - | - | - |
| 1778012113 | 31.67° C | 100% | 1014.9 hPa | - | - | - | - |
* Rain since midnight (hover to see other rain measurements)
** Current wind speed in m/s (hover to see current wind gust speed)